Time;durP1;ratioP1;P1;durP2;ratioP2;P2;SDS_P1;SDS_P2;PMS_P1;PMS_P2;Temp;Humidity;BMP_temperature;BMP_pressure;BME280_temperature;BME280_humidity;BME280_pressure;Samples;Min_cycle;Max_cycle;Signal;HPM_P1;HPM_P2
2022/05/10 00:01:05;;;;;;;13.63;9.40;;;;;;;;;;5053919;28;20132;-74
2022/05/10 00:03:35;;;;;;;13.63;9.88;;;;;;;;;;5053811;28;20163;-73
2022/05/10 00:06:03;;;;;;;17.15;10.18;;;;;;;;;;5052988;28;20045;-74
2022/05/10 00:08:29;;;;;;;12.47;9.90;;;;;;;;;;5053695;28;20118;-74
2022/05/10 00:10:56;;;;;;;15.50;9.55;;;;;;;;;;5053480;28;20336;-74
2022/05/10 00:13:26;;;;;;;14.20;10.30;;;;;;;;;;5053460;28;20505;-73
2022/05/10 00:15:53;;;;;;;13.90;10.70;;;;;;;;;;5053560;28;20091;-73
2022/05/10 00:18:20;;;;;;;13.00;9.38;;;;;;;;;;5053604;28;20082;-73
2022/05/10 00:20:47;;;;;;;16.52;10.40;;;;;;;;;;5053339;28;20056;-73
2022/05/10 00:23:14;;;;;;;18.25;11.77;;;;;;;;;;5051991;28;20049;-73
2022/05/10 00:25:41;;;;;;;16.70;10.57;;;;;;;;;;5053372;28;20080;-74
2022/05/10 00:28:08;;;;;;;;;;;;;;;;;;5052717;28;20085;-74
2022/05/10 00:30:34;;;;;;;15.77;11.00;;;;;;;;;;5053558;28;19924;-74
2022/05/10 00:33:01;;;;;;;17.25;11.70;;;;;;;;;;5053158;28;20087;-74
2022/05/10 00:35:28;;;;;;;16.95;12.13;;;;;;;;;;5053264;28;20158;-74
2022/05/10 00:37:57;;;;;;;18.13;12.25;;;;;;;;;;5053020;28;20159;-74
2022/05/10 00:40:25;;;;;;;16.17;11.68;;;;;;;;;;5053225;28;20088;-72
2022/05/10 00:42:55;;;;;;;16.42;12.93;;;;;;;;;;5051500;28;20091;-73
2022/05/10 00:45:24;;;;;;;18.23;12.13;;;;;;;;;;5052680;28;20570;-73
2022/05/10 00:47:59;;;;;;;16.48;13.18;;;;;;;;;;5053082;28;20076;-73
2022/05/10 00:50:32;;;;;;;16.00;12.02;;;;;;;;;;5052724;28;20091;-73
2022/05/10 00:53:02;;;;;;;23.73;14.85;;;;;;;;;;5052614;28;20472;-73
2022/05/10 00:55:38;;;;;;;19.13;13.77;;;;;;;;;;5052858;28;20095;-73
2022/05/10 00:58:10;;;;;;;20.35;14.18;;;;;;;;;;5052574;28;20088;-73
2022/05/10 01:00:37;;;;;;;19.98;14.07;;;;;;;;;;5052561;28;20493;-73
2022/05/10 01:03:28;;;;;;;19.73;13.88;;;;;;;;;;5052737;28;20492;-73
2022/05/10 01:05:58;;;;;;;19.05;14.65;;;;;;;;;;5052637;28;20048;-73
2022/05/10 01:08:31;;;;;;;19.65;13.68;;;;;;;;;;5052685;28;20186;-73
2022/05/10 01:11:16;;;;;;;17.88;13.18;;;;;;;;;;5052408;28;20080;-73
2022/05/10 01:13:52;;;;;;;21.65;14.90;;;;;;;;;;5052518;28;20044;-73
2022/05/10 01:16:20;;;;;;;18.15;13.50;;;;;;;;;;5052287;28;20080;-73
2022/05/10 01:18:47;;;;;;;19.10;14.15;;;;;;;;;;5050694;28;20489;-73
2022/05/10 01:21:28;;;;;;;17.98;13.45;;;;;;;;;;5052413;28;20048;-73
2022/05/10 01:24:01;;;;;;;19.73;13.52;;;;;;;;;;5052393;28;20105;-73
2022/05/10 01:26:43;;;;;;;20.67;13.30;;;;;;;;;;5051069;28;20084;-73
2022/05/10 01:29:22;;;;;;;16.13;12.88;;;;;;;;;;5052116;28;20069;-73
2022/05/10 01:33:29;;;;;;;19.38;13.50;;;;;;;;;;5052263;28;20469;-73
2022/05/10 01:34:38;;;;;;;19.20;12.98;;;;;;;;;;5051899;28;20053;-73
2022/05/10 01:37:08;;;;;;;16.58;12.85;;;;;;;;;;5050873;28;20053;-73
2022/05/10 01:39:41;;;;;;;15.98;11.95;;;;;;;;;;5052100;28;20048;-73
2022/05/10 01:42:12;;;;;;;17.35;11.93;;;;;;;;;;5050783;28;20144;-74
2022/05/10 01:44:40;;;;;;;13.70;11.27;;;;;;;;;;5051653;28;20092;-74
2022/05/10 01:47:09;;;;;;;15.73;11.82;;;;;;;;;;5052074;28;20053;-74
2022/05/10 01:49:47;;;;;;;13.73;10.55;;;;;;;;;;5051832;28;20076;-74
2022/05/10 01:52:14;;;;;;;13.70;11.23;;;;;;;;;;5052131;28;20049;-74
2022/05/10 01:54:40;;;;;;;13.30;10.55;;;;;;;;;;5051582;28;20127;-74
2022/05/10 01:57:11;;;;;;;14.98;11.07;;;;;;;;;;5051562;28;20061;-74
2022/05/10 01:59:40;;;;;;;14.85;11.30;;;;;;;;;;5051842;28;20084;-74
2022/05/10 02:02:07;;;;;;;14.30;10.68;;;;;;;;;;5051489;28;20560;-73
2022/05/10 02:04:36;;;;;;;13.13;10.38;;;;;;;;;;5051595;28;20045;-73
2022/05/10 02:07:18;;;;;;;12.63;9.93;;;;;;;;;;5051507;28;20049;-73
2022/05/10 02:09:46;;;;;;;15.77;9.63;;;;;;;;;;5051447;28;20080;-73
2022/05/10 02:12:22;;;;;;;13.98;10.23;;;;;;;;;;5051777;28;20124;-73
2022/05/10 02:14:51;;;;;;;13.27;9.88;;;;;;;;;;5051733;28;20080;-73
2022/05/10 02:17:34;;;;;;;13.48;10.07;;;;;;;;;;5050257;28;20076;-73
2022/05/10 02:20:06;;;;;;;15.02;10.25;;;;;;;;;;5051604;28;20053;-73
2022/05/10 02:22:37;;;;;;;13.43;10.20;;;;;;;;;;5051577;28;20045;-73
2022/05/10 02:25:24;;;;;;;12.00;9.15;;;;;;;;;;5051539;28;20076;-73
2022/05/10 02:27:51;;;;;;;12.15;9.45;;;;;;;;;;5051318;28;20509;-73
2022/05/10 02:30:19;;;;;;;14.45;9.98;;;;;;;;;;5053319;28;20574;-73
2022/05/10 02:33:09;;;;;;;12.48;9.35;;;;;;;;;;5055352;28;20089;-74
2022/05/10 02:35:42;;;;;;;11.15;9.10;;;;;;;;;;5055505;28;20053;-73
2022/05/10 02:38:10;;;;;;;14.32;9.77;;;;;;;;;;5055564;28;20085;-73
2022/05/10 02:40:41;;;;;;;11.48;8.43;;;;;;;;;;5055425;28;20080;-73
2022/05/10 02:43:12;;;;;;;10.68;8.38;;;;;;;;;;5055342;28;20107;-73
2022/05/10 02:45:38;;;;;;;9.50;8.38;;;;;;;;;;5054868;28;20093;-73
2022/05/10 02:48:11;;;;;;;10.23;7.67;;;;;;;;;;5055404;28;20073;-73
2022/05/10 02:50:38;;;;;;;9.63;8.63;;;;;;;;;;5055223;28;20084;-73
2022/05/10 02:53:04;;;;;;;10.88;7.70;;;;;;;;;;5054950;28;20049;-73
2022/05/10 02:55:43;;;;;;;8.77;7.88;;;;;;;;;;5055176;28;20084;-74
2022/05/10 02:58:16;;;;;;;9.60;7.82;;;;;;;;;;5055203;28;20080;-73
2022/05/10 03:00:43;;;;;;;10.07;7.65;;;;;;;;;;5054837;28;20508;-73
2022/05/10 03:03:17;;;;;;;10.00;8.50;;;;;;;;;;5054746;28;20441;-73
2022/05/10 03:05:44;;;;;;;9.10;6.95;;;;;;;;;;5055125;28;20107;-73
2022/05/10 03:08:10;;;;;;;10.68;6.93;;;;;;;;;;5054791;28;20083;-73
2022/05/10 03:10:36;;;;;;;10.23;7.20;;;;;;;;;;5054691;28;20469;-73
2022/05/10 03:13:03;;;;;;;8.27;6.82;;;;;;;;;;5054807;28;20041;-73
2022/05/10 03:15:29;;;;;;;8.00;6.85;;;;;;;;;;5054885;28;20459;-73
2022/05/10 03:17:56;;;;;;;9.07;6.70;;;;;;;;;;5054751;28;20087;-73
2022/05/10 03:20:23;;;;;;;7.10;6.40;;;;;;;;;;5054722;28;20045;-73
2022/05/10 03:22:49;;;;;;;9.30;7.00;;;;;;;;;;5054608;28;20080;-73
2022/05/10 03:25:16;;;;;;;9.40;6.57;;;;;;;;;;5054318;28;20084;-73
2022/05/10 03:27:42;;;;;;;8.82;6.53;;;;;;;;;;5054681;28;20092;-74
2022/05/10 03:30:09;;;;;;;7.18;5.82;;;;;;;;;;5054257;28;20084;-73
2022/05/10 03:32:35;;;;;;;8.65;6.40;;;;;;;;;;5054544;28;20080;-74
2022/05/10 03:35:02;;;;;;;7.63;6.03;;;;;;;;;;5054458;28;20053;-74
2022/05/10 03:37:30;;;;;;;9.63;6.07;;;;;;;;;;5053048;28;20059;-74
2022/05/10 03:39:57;;;;;;;7.28;5.75;;;;;;;;;;5054375;28;20084;-74
2022/05/10 03:42:24;;;;;;;7.85;5.40;;;;;;;;;;5053994;28;20459;-74
2022/05/10 03:44:52;;;;;;;8.27;5.83;;;;;;;;;;5053927;28;20100;-74
2022/05/10 03:47:22;;;;;;;7.20;5.57;;;;;;;;;;5054122;28;20057;-74
2022/05/10 03:49:49;;;;;;;6.97;4.90;;;;;;;;;;5053897;28;20057;-74
2022/05/10 03:52:16;;;;;;;7.10;5.32;;;;;;;;;;5052896;28;20053;-74
2022/05/10 03:54:42;;;;;;;7.23;5.07;;;;;;;;;;5054087;28;20092;-74
2022/05/10 03:57:10;;;;;;;5.77;4.93;;;;;;;;;;5053780;28;20099;-74
2022/05/10 03:59:41;;;;;;;6.28;5.13;;;;;;;;;;5053772;28;20055;-74
2022/05/10 04:02:09;;;;;;;8.13;5.68;;;;;;;;;;5053686;28;20045;-74
2022/05/10 04:04:36;;;;;;;9.13;5.28;;;;;;;;;;5052377;28;20049;-74
2022/05/10 04:07:03;;;;;;;5.63;4.57;;;;;;;;;;5053828;28;20464;-74
2022/05/10 04:09:29;;;;;;;7.60;4.85;;;;;;;;;;5053781;28;20495;-75
2022/05/10 04:11:55;;;;;;;9.18;5.28;;;;;;;;;;5052237;28;20536;-74
2022/05/10 04:14:22;;;;;;;5.32;4.47;;;;;;;;;;5053600;28;20107;-74
2022/05/10 04:16:48;;;;;;;6.10;4.55;;;;;;;;;;5053728;28;20076;-74
2022/05/10 04:19:15;;;;;;;5.40;4.70;;;;;;;;;;5053650;28;20053;-74
2022/05/10 04:21:41;;;;;;;7.68;4.70;;;;;;;;;;5053497;28;20595;-74
2022/05/10 04:24:08;;;;;;;6.78;4.70;;;;;;;;;;5053362;28;20049;-74
2022/05/10 04:26:34;;;;;;;7.25;4.45;;;;;;;;;;5053314;28;20088;-74
2022/05/10 04:29:01;;;;;;;7.25;4.30;;;;;;;;;;5053444;28;20076;-74
2022/05/10 04:31:27;;;;;;;7.68;4.85;;;;;;;;;;5052066;28;20080;-74
2022/05/10 04:33:53;;;;;;;5.95;4.95;;;;;;;;;;5053208;28;20080;-74
2022/05/10 04:36:23;;;;;;;5.18;4.15;;;;;;;;;;5052934;28;20084;-75
2022/05/10 04:38:49;;;;;;;7.18;4.07;;;;;;;;;;5053347;28;20045;-74
2022/05/10 04:41:25;;;;;;;6.68;4.60;;;;;;;;;;5052965;28;20089;-74
2022/05/10 04:44:01;;;;;;;4.95;4.30;;;;;;;;;;5052590;28;20053;-74
2022/05/10 04:46:30;;;;;;;6.07;4.53;;;;;;;;;;5068610;28;20084;-75
2022/05/10 04:48:57;;;;;;;6.05;4.43;;;;;;;;;;5052847;28;20045;-75
2022/05/10 04:51:24;;;;;;;5.05;4.25;;;;;;;;;;5053051;28;20132;-74
2022/05/10 04:53:50;;;;;;;7.80;4.00;;;;;;;;;;5052397;28;20088;-74
2022/05/10 04:56:17;;;;;;;7.72;4.07;;;;;;;;;;5052867;28;20489;-74
2022/05/10 04:58:43;;;;;;;7.53;4.38;;;;;;;;;;5052946;28;20451;-74
2022/05/10 05:01:12;;;;;;;6.28;4.28;;;;;;;;;;5051504;28;20439;-74
2022/05/10 05:03:41;;;;;;;7.90;4.15;;;;;;;;;;5052732;28;20056;-74
2022/05/10 05:06:08;;;;;;;5.53;4.45;;;;;;;;;;5052476;28;20049;-74
2022/05/10 05:08:34;;;;;;;7.03;4.40;;;;;;;;;;5051360;28;20045;-74
2022/05/10 05:11:01;;;;;;;6.07;4.30;;;;;;;;;;5052568;28;20081;-74
2022/05/10 05:13:27;;;;;;;5.93;3.90;;;;;;;;;;5052639;28;20080;-74
2022/05/10 05:15:54;;;;;;;8.13;4.53;;;;;;;;;;5052282;28;20527;-74
2022/05/10 05:18:21;;;;;;;8.48;4.10;;;;;;;;;;5052509;28;20045;-74
2022/05/10 05:20:48;;;;;;;;;;;;;;;;;;5052708;28;20056;-74
2022/05/10 05:23:16;;;;;;;6.30;4.47;;;;;;;;;;5052012;28;19924;-74
2022/05/10 05:25:42;;;;;;;8.30;4.53;;;;;;;;;;5052146;28;20099;-74
2022/05/10 05:28:09;;;;;;;7.18;4.40;;;;;;;;;;5051930;28;20497;-74
2022/05/10 05:30:36;;;;;;;7.47;4.47;;;;;;;;;;5052192;28;20076;-75
2022/05/10 05:33:03;;;;;;;5.30;4.60;;;;;;;;;;5050794;28;20084;-74
2022/05/10 05:35:29;;;;;;;5.35;4.55;;;;;;;;;;5050830;28;20052;-74
2022/05/10 05:37:56;;;;;;;5.75;5.18;;;;;;;;;;5052335;28;20076;-74
2022/05/10 05:40:23;;;;;;;5.35;4.43;;;;;;;;;;5051834;28;20045;-74
2022/05/10 05:42:50;;;;;;;6.97;4.72;;;;;;;;;;5052052;28;20141;-74
2022/05/10 05:45:17;;;;;;;6.53;4.67;;;;;;;;;;5051767;28;20088;-74
2022/05/10 05:47:44;;;;;;;5.50;4.70;;;;;;;;;;5052020;28;20055;-74
2022/05/10 05:50:11;;;;;;;7.55;4.75;;;;;;;;;;5051978;28;20045;-74
2022/05/10 05:52:38;;;;;;;5.95;4.70;;;;;;;;;;5051646;28;20512;-74
2022/05/10 05:55:05;;;;;;;8.88;5.30;;;;;;;;;;5051789;28;20084;-74
2022/05/10 05:57:32;;;;;;;7.43;4.88;;;;;;;;;;5051871;28;20098;-74
2022/05/10 05:59:59;;;;;;;6.72;5.00;;;;;;;;;;5051956;28;20053;-74
2022/05/10 06:02:26;;;;;;;6.80;4.70;;;;;;;;;;5051595;28;20056;-74
2022/05/10 06:04:52;;;;;;;9.57;5.18;;;;;;;;;;5050970;28;20049;-74
2022/05/10 06:07:19;;;;;;;7.20;4.88;;;;;;;;;;5051614;28;20080;-68
2022/05/10 06:09:47;;;;;;;6.95;4.78;;;;;;;;;;5051764;28;20451;-74
2022/05/10 06:12:16;;;;;;;8.73;5.32;;;;;;;;;;5051487;28;20045;-74
2022/05/10 06:14:43;;;;;;;6.68;4.50;;;;;;;;;;5051683;28;20073;-74
2022/05/10 06:17:10;;;;;;;8.75;5.18;;;;;;;;;;5051603;28;20102;-74
2022/05/10 06:19:38;;;;;;;6.38;4.22;;;;;;;;;;5051055;28;20524;-74
2022/05/10 06:22:04;;;;;;;;;;;;;;;;;;5052108;28;20370;-74
2022/05/10 06:24:30;;;;;;;6.15;4.55;;;;;;;;;;5050757;28;19975;-74
2022/05/10 06:26:57;;;;;;;3.80;3.47;;;;;;;;;;5051477;28;20094;-75
2022/05/10 06:29:23;;;;;;;4.50;4.00;;;;;;;;;;5051265;28;20088;-74
2022/05/10 06:31:50;;;;;;;5.55;3.28;;;;;;;;;;5051083;28;20084;-73
2022/05/10 06:34:17;;;;;;;4.80;3.07;;;;;;;;;;5050409;28;20489;-74
2022/05/10 06:36:44;;;;;;;3.90;3.47;;;;;;;;;;5050871;28;20076;-76
2022/05/10 06:39:10;;;;;;;3.73;3.33;;;;;;;;;;5050144;28;20053;-74
2022/05/10 06:41:37;;;;;;;4.20;3.20;;;;;;;;;;5051235;28;20053;-74
2022/05/10 06:44:04;;;;;;;3.78;3.20;;;;;;;;;;5051006;28;20141;-75
2022/05/10 06:46:32;;;;;;;3.33;2.88;;;;;;;;;;5051082;28;20084;-74
2022/05/10 06:49:02;;;;;;;3.17;2.88;;;;;;;;;;5049703;28;20098;-73
2022/05/10 06:51:28;;;;;;;2.85;2.58;;;;;;;;;;5050905;28;20050;-76
2022/05/10 06:53:55;;;;;;;3.38;3.08;;;;;;;;;;5051058;28;20512;-74
2022/05/10 06:56:22;;;;;;;2.35;2.15;;;;;;;;;;5051000;28;20107;-73
2022/05/10 06:58:48;;;;;;;3.08;2.15;;;;;;;;;;5051021;28;20052;-75
2022/05/10 07:01:15;;;;;;;2.53;2.03;;;;;;;;;;5051154;28;20504;-76
2022/05/10 07:03:50;;;;;;;2.13;1.90;;;;;;;;;;5049697;28;20120;-75
2022/05/10 07:06:18;;;;;;;2.45;1.73;;;;;;;;;;5045735;28;20069;-74
2022/05/10 07:08:45;;;;;;;6.40;2.10;;;;;;;;;;5050056;28;20132;-75
2022/05/10 07:11:12;;;;;;;2.10;1.90;;;;;;;;;;5040980;28;20045;-78
2022/05/10 07:13:39;;;;;;;2.08;1.60;;;;;;;;;;5042793;28;20077;-75
2022/05/10 07:16:05;;;;;;;2.42;1.50;;;;;;;;;;5051394;28;20045;-76
2022/05/10 07:18:32;;;;;;;1.73;1.40;;;;;;;;;;5054760;28;20049;-78
2022/05/10 07:20:58;;;;;;;1.27;1.17;;;;;;;;;;5054138;28;20084;-76
2022/05/10 07:23:30;;;;;;;1.00;1.00;;;;;;;;;;5054287;28;20104;-78
2022/05/10 07:26:02;;;;;;;0.90;0.70;;;;;;;;;;5054129;28;20136;-75
2022/05/10 07:28:29;;;;;;;1.45;0.60;;;;;;;;;;5054245;28;20044;-76
2022/05/10 07:30:58;;;;;;;0.93;0.60;;;;;;;;;;5049525;28;20049;-76
2022/05/10 07:33:26;;;;;;;0.55;0.55;;;;;;;;;;5053654;28;20558;-76
2022/05/10 07:38:38;;;;;;;3.38;1.08;;;;;;;;;;5054479;28;20084;-79
2022/05/10 07:41:05;;;;;;;6.15;1.30;;;;;;;;;;5069018;28;20044;-78
2022/05/10 07:43:36;;;;;;;3.67;1.17;;;;;;;;;;5054007;28;20064;-79
2022/05/10 07:46:02;;;;;;;4.20;1.02;;;;;;;;;;5054229;28;20087;-77
2022/05/10 07:48:29;;;;;;;3.85;1.17;;;;;;;;;;5054399;28;20049;-77
2022/05/10 07:50:55;;;;;;;5.32;2.05;;;;;;;;;;5054149;28;20045;-77
2022/05/10 07:53:21;;;;;;;3.05;1.45;;;;;;;;;;5054069;28;20087;-76
2022/05/10 07:55:48;;;;;;;3.35;0.95;;;;;;;;;;5054170;28;20056;-76
2022/05/10 07:58:15;;;;;;;3.42;1.27;;;;;;;;;;5053844;28;20076;-76
2022/05/10 08:00:42;;;;;;;5.88;1.05;;;;;;;;;;5054061;28;20084;-75
2022/05/10 08:03:09;;;;;;;5.32;1.45;;;;;;;;;;5053400;28;20049;-75
2022/05/10 08:05:36;;;;;;;5.15;1.05;;;;;;;;;;5053881;28;20049;-75
2022/05/10 08:08:03;;;;;;;4.32;1.25;;;;;;;;;;5053705;28;20048;-75
2022/05/10 08:10:29;;;;;;;5.47;0.90;;;;;;;;;;5053785;28;20547;-75
2022/05/10 08:12:56;;;;;;;3.58;1.13;;;;;;;;;;5053078;28;20076;-75
2022/05/10 08:15:22;;;;;;;1.73;0.90;;;;;;;;;;5053347;28;20045;-75
2022/05/10 08:17:49;;;;;;;8.43;1.48;;;;;;;;;;5043922;28;20501;-73
2022/05/10 08:20:15;;;;;;;5.95;1.00;;;;;;;;;;5052805;28;20485;-74
2022/05/10 08:22:42;;;;;;;3.63;0.82;;;;;;;;;;5052787;28;20085;-73
2022/05/10 08:25:10;;;;;;;6.05;1.27;;;;;;;;;;5053747;28;20080;-74
2022/05/10 08:27:36;;;;;;;5.43;1.63;;;;;;;;;;5052591;28;20080;-74
2022/05/10 08:30:03;;;;;;;4.97;1.00;;;;;;;;;;5053152;28;20071;-73
2022/05/10 08:32:30;;;;;;;6.53;0.90;;;;;;;;;;5053051;28;20496;-74
2022/05/10 08:34:56;;;;;;;4.18;0.90;;;;;;;;;;5038327;28;20318;-73
2022/05/10 08:37:22;;;;;;;6.28;1.67;;;;;;;;;;5053031;28;20080;-74
2022/05/10 08:39:49;;;;;;;5.13;1.08;;;;;;;;;;5053224;28;20084;-74
2022/05/10 08:42:25;;;;;;;5.50;1.20;;;;;;;;;;5053199;28;20044;-74
2022/05/10 08:45:03;;;;;;;4.15;1.23;;;;;;;;;;5052741;28;20049;-72
2022/05/10 08:47:31;;;;;;;5.75;1.05;;;;;;;;;;5053271;28;20049;-72
2022/05/10 08:49:58;;;;;;;8.50;2.20;;;;;;;;;;5052870;28;20049;-72
2022/05/10 08:52:46;;;;;;;7.55;1.67;;;;;;;;;;5052605;28;20047;-73
2022/05/10 08:55:15;;;;;;;5.88;1.00;;;;;;;;;;5052559;28;20076;-73
2022/05/10 08:57:49;;;;;;;5.35;1.45;;;;;;;;;;5052642;28;20049;-73
2022/05/10 09:00:28;;;;;;;6.32;1.77;;;;;;;;;;5052605;28;20076;-73
2022/05/10 09:02:56;;;;;;;7.40;1.52;;;;;;;;;;5052423;28;20077;-72
2022/05/10 09:05:28;;;;;;;5.70;1.95;;;;;;;;;;5052798;28;20049;-71
2022/05/10 09:07:59;;;;;;;8.85;1.88;;;;;;;;;;5052408;28;20476;-72
2022/05/10 09:10:41;;;;;;;4.43;1.40;;;;;;;;;;5052722;28;20049;-72
2022/05/10 09:13:10;;;;;;;7.10;2.08;;;;;;;;;;5052427;28;20068;-72
2022/05/10 09:15:44;;;;;;;9.65;1.67;;;;;;;;;;5052452;28;20045;-72
2022/05/10 09:18:17;;;;;;;6.43;1.40;;;;;;;;;;5051259;28;20036;-72
2022/05/10 09:21:02;;;;;;;8.15;1.95;;;;;;;;;;5052197;28;20480;-72
2022/05/10 09:23:35;;;;;;;7.40;1.70;;;;;;;;;;5052355;28;20041;-72
2022/05/10 09:26:03;;;;;;;8.50;1.90;;;;;;;;;;5051210;28;20052;-72
2022/05/10 09:28:39;;;;;;;6.57;1.42;;;;;;;;;;5052310;28;20087;-72
2022/05/10 09:34:47;;;;;;;6.32;1.38;;;;;;;;;;5052607;28;20045;-72
2022/05/10 09:37:14;;;;;;;7.53;1.58;;;;;;;;;;5052190;28;20056;-72
2022/05/10 09:39:56;;;;;;;7.03;1.50;;;;;;;;;;5052104;28;20056;-72
2022/05/10 09:42:31;;;;;;;9.02;1.88;;;;;;;;;;5051756;28;20049;-75
2022/05/10 09:44:58;;;;;;;5.35;1.23;;;;;;;;;;5046690;28;20072;-70
2022/05/10 09:47:25;;;;;;;3.83;1.10;;;;;;;;;;5051015;28;20080;-70
2022/05/10 09:49:52;;;;;;;8.10;1.70;;;;;;;;;;5050630;28;20127;-69
2022/05/10 09:52:20;;;;;;;6.82;1.27;;;;;;;;;;5050789;28;20135;-69
2022/05/10 09:54:48;;;;;;;4.60;1.75;;;;;;;;;;5050928;28;20049;-70
2022/05/10 09:57:46;;;;;;;4.88;1.20;;;;;;;;;;5050807;28;20118;-69
2022/05/10 10:00:14;;;;;;;5.85;1.48;;;;;;;;;;5049819;28;20053;-70
2022/05/10 10:02:41;;;;;;;3.88;1.27;;;;;;;;;;5050637;28;20139;-69
2022/05/10 10:05:08;;;;;;;;;;;;;;;;;;5049538;28;20053;-70
2022/05/10 10:07:34;;;;;;;7.53;1.40;;;;;;;;;;5050507;28;19956;-69
2022/05/10 10:10:15;;;;;;;6.53;1.10;;;;;;;;;;5050683;28;20707;-70
2022/05/10 10:12:42;;;;;;;4.32;1.30;;;;;;;;;;5050480;28;20076;-69
2022/05/10 10:15:15;;;;;;;4.90;1.23;;;;;;;;;;5050316;28;20055;-69
2022/05/10 10:17:55;;;;;;;4.78;1.17;;;;;;;;;;5050605;28;20072;-69
2022/05/10 10:20:30;;;;;;;6.15;1.30;;;;;;;;;;5050391;28;20500;-69
2022/05/10 10:22:59;;;;;;;4.68;0.95;;;;;;;;;;5050559;28;20049;-69
2022/05/10 10:25:28;;;;;;;4.70;0.90;;;;;;;;;;5050620;28;20520;-69
2022/05/10 10:28:01;;;;;;;5.13;1.30;;;;;;;;;;5050089;28;20080;-69
2022/05/10 10:30:33;;;;;;;4.45;1.20;;;;;;;;;;5037631;28;20132;-70
2022/05/10 10:33:07;;;;;;;5.47;1.05;;;;;;;;;;5049637;28;20087;-70
2022/05/10 10:35:49;;;;;;;3.28;1.15;;;;;;;;;;5050084;28;20049;-69
2022/05/10 10:38:38;;;;;;;6.82;1.35;;;;;;;;;;5048595;28;20084;-69
2022/05/10 10:41:08;;;;;;;4.40;1.10;;;;;;;;;;5042534;28;20435;-69
2022/05/10 10:43:54;;;;;;;2.58;0.85;;;;;;;;;;5050895;28;20081;-69
2022/05/10 10:46:20;;;;;;;7.05;1.20;;;;;;;;;;5050817;28;20404;-70
2022/05/10 10:48:48;;;;;;;6.18;1.00;;;;;;;;;;5048343;28;20041;-70
2022/05/10 10:51:15;;;;;;;3.55;0.88;;;;;;;;;;5050622;28;20098;-70
2022/05/10 10:53:44;;;;;;;4.43;0.90;;;;;;;;;;5047811;28;20508;-69
2022/05/10 10:56:29;;;;;;;2.72;0.70;;;;;;;;;;5054871;28;20049;-70
2022/05/10 10:58:55;;;;;;;3.42;0.85;;;;;;;;;;5055311;28;20080;-70
2022/05/10 11:01:28;;;;;;;4.47;1.08;;;;;;;;;;5054776;28;20540;-70
2022/05/10 11:04:06;;;;;;;4.20;1.10;;;;;;;;;;5054840;28;20071;-70
2022/05/10 11:06:38;;;;;;;4.28;0.98;;;;;;;;;;5054742;28;20099;-69
2022/05/10 11:09:25;;;;;;;5.90;0.95;;;;;;;;;;5054142;28;20086;-68
2022/05/10 11:12:00;;;;;;;4.13;0.98;;;;;;;;;;5051012;28;20119;-69
2022/05/10 11:14:33;;;;;;;6.22;0.95;;;;;;;;;;5054937;28;20049;-70
2022/05/10 11:16:59;;;;;;;5.15;1.10;;;;;;;;;;5054512;28;20084;-69
2022/05/10 11:19:44;;;;;;;4.88;1.48;;;;;;;;;;5053930;28;20087;-72
2022/05/10 11:22:26;;;;;;;4.20;1.10;;;;;;;;;;5049974;28;20550;-72
2022/05/10 11:24:55;;;;;;;5.68;1.25;;;;;;;;;;5052596;28;20083;-72
2022/05/10 11:27:29;;;;;;;4.85;1.10;;;;;;;;;;5052859;28;20080;-72
2022/05/10 11:29:55;;;;;;;2.75;1.20;;;;;;;;;;5053821;28;20076;-70
2022/05/10 11:32:27;;;;;;;4.22;1.10;;;;;;;;;;5053376;28;20084;-72
2022/05/10 11:35:06;;;;;;;5.35;1.65;;;;;;;;;;5053471;28;20084;-72
2022/05/10 11:37:40;;;;;;;3.38;1.00;;;;;;;;;;5038968;28;20057;-72
2022/05/10 11:40:24;;;;;;;4.18;1.30;;;;;;;;;;5052898;28;20057;-71
2022/05/10 11:42:50;;;;;;;5.85;1.77;;;;;;;;;;5053308;28;20052;-71
2022/05/10 11:45:20;;;;;;;7.35;1.73;;;;;;;;;;5052489;28;20110;-71
2022/05/10 11:48:22;;;;;;;4.60;1.42;;;;;;;;;;5053142;28;20076;-71
2022/05/10 11:54:13;;;;;;;5.93;1.33;;;;;;;;;;5037974;28;20067;-72
2022/05/10 11:56:40;;;;;;;7.82;1.35;;;;;;;;;;5053046;28;20427;-72
2022/05/10 11:59:13;;;;;;;6.13;1.25;;;;;;;;;;5052836;28;20049;-72
2022/05/10 12:01:44;;;;;;;4.30;1.50;;;;;;;;;;5052351;28;20098;-74
2022/05/10 12:04:29;;;;;;;4.20;1.23;;;;;;;;;;5052008;28;20546;-74
2022/05/10 12:07:16;;;;;;;4.13;1.08;;;;;;;;;;5052929;28;20049;-74
2022/05/10 12:09:42;;;;;;;;;;;;;;;;;;5053014;28;20134;-72
2022/05/10 12:12:22;;;;;;;4.55;1.50;;;;;;;;;;5052727;28;20388;-72
2022/05/10 12:21:19;;;;;;;4.32;1.23;;;;;;;;;;5052685;28;20076;-70
2022/05/10 12:24:07;;;;;;;2.47;0.80;;;;;;;;;;5044265;28;20065;-70
2022/05/10 12:26:37;;;;;;;3.58;0.80;;;;;;;;;;5038786;28;20080;-70
2022/05/10 12:29:26;;;;;;;5.05;1.00;;;;;;;;;;5052392;28;20102;-70
2022/05/10 12:31:55;;;;;;;4.22;0.90;;;;;;;;;;5052066;28;20138;-70
2022/05/10 12:34:36;;;;;;;3.33;1.05;;;;;;;;;;5052065;28;20110;-70
2022/05/10 12:37:20;;;;;;;6.28;1.05;;;;;;;;;;5052295;28;20076;-70
2022/05/10 12:39:51;;;;;;;7.32;1.35;;;;;;;;;;5050206;28;20084;-69
2022/05/10 12:42:22;;;;;;;5.22;1.20;;;;;;;;;;5051931;28;20084;-70
2022/05/10 12:44:55;;;;;;;3.03;0.70;;;;;;;;;;5048958;28;20140;-70
2022/05/10 12:47:27;;;;;;;5.93;1.00;;;;;;;;;;5051684;28;20546;-70
2022/05/10 12:50:29;;;;;;;4.72;1.10;;;;;;;;;;5051044;28;20072;-71
2022/05/10 12:52:56;;;;;;;3.28;0.82;;;;;;;;;;5051343;28;20123;-71
2022/05/10 12:55:27;;;;;;;3.38;1.00;;;;;;;;;;5051465;28;20135;-72
2022/05/10 12:57:56;;;;;;;2.95;1.02;;;;;;;;;;5051537;28;20331;-71
2022/05/10 13:00:24;;;;;;;5.82;1.20;;;;;;;;;;5051499;28;20050;-71
2022/05/10 13:02:58;;;;;;;1.90;0.70;;;;;;;;;;5051727;28;20102;-71
2022/05/10 13:05:37;;;;;;;3.75;1.08;;;;;;;;;;5051650;28;20044;-71
2022/05/10 13:08:05;;;;;;;3.92;1.00;;;;;;;;;;5051506;28;20049;-72
2022/05/10 13:10:33;;;;;;;3.53;0.90;;;;;;;;;;5051647;28;20045;-72
2022/05/10 13:13:03;;;;;;;3.67;0.90;;;;;;;;;;5049638;28;20076;-71
2022/05/10 13:15:29;;;;;;;4.43;1.10;;;;;;;;;;5051283;28;20076;-71
2022/05/10 13:17:57;;;;;;;4.32;1.05;;;;;;;;;;5050774;28;20488;-71
2022/05/10 13:20:28;;;;;;;4.63;1.20;;;;;;;;;;5050926;28;20080;-71
2022/05/10 13:22:59;;;;;;;3.70;1.15;;;;;;;;;;5050745;28;20107;-71
2022/05/10 13:25:39;;;;;;;5.93;0.98;;;;;;;;;;5051141;28;20061;-72
2022/05/10 13:28:05;;;;;;;3.20;1.27;;;;;;;;;;5051374;28;20045;-71
2022/05/10 13:30:32;;;;;;;3.80;1.08;;;;;;;;;;5051274;28;20511;-71
2022/05/10 13:32:58;;;;;;;;;;;;;;;;;;5051960;28;20076;-72
2022/05/10 13:35:26;;;;;;;3.05;1.15;;;;;;;;;;5051334;28;19925;-71
2022/05/10 13:38:02;;;;;;;5.63;1.17;;;;;;;;;;5049325;28;20080;-71
2022/05/10 13:40:32;;;;;;;3.45;1.10;;;;;;;;;;5051231;28;20076;-71
2022/05/10 13:43:06;;;;;;;5.03;0.85;;;;;;;;;;5050838;28;20528;-72
2022/05/10 13:45:34;;;;;;;5.05;1.10;;;;;;;;;;5050307;28;20103;-71
2022/05/10 13:48:04;;;;;;;2.85;0.60;;;;;;;;;;5051048;28;20076;-71
2022/05/10 13:50:31;;;;;;;4.13;1.00;;;;;;;;;;5049461;28;20496;-71
2022/05/10 13:52:57;;;;;;;;;;;;;;;;;;5051311;28;20079;-72
2022/05/10 13:55:26;;;;;;;3.22;0.68;;;;;;;;;;5050540;28;19920;-72
2022/05/10 13:58:03;;;;;;;5.10;0.90;;;;;;;;;;5050832;28;20146;-72
2022/05/10 14:00:34;;;;;;;3.95;0.90;;;;;;;;;;5050650;28;20080;-71
2022/05/10 14:03:01;;;;;;;4.90;0.93;;;;;;;;;;5050416;28;20049;-71
2022/05/10 14:05:30;;;;;;;3.80;1.00;;;;;;;;;;5050878;28;20048;-72
2022/05/10 14:08:10;;;;;;;3.55;0.85;;;;;;;;;;5049918;28;20359;-71
2022/05/10 14:10:39;;;;;;;5.53;1.23;;;;;;;;;;5050952;28;20072;-74
2022/05/10 14:13:11;;;;;;;6.13;1.60;;;;;;;;;;5050349;28;20496;-73
2022/05/10 14:15:39;;;;;;;9.82;4.60;;;;;;;;;;5051130;28;20126;-73
2022/05/10 14:18:13;;;;;;;5.78;2.30;;;;;;;;;;5050069;28;20103;-73
2022/05/10 14:20:45;;;;;;;5.13;2.38;;;;;;;;;;5051330;28;20502;-73
2022/05/10 14:23:14;;;;;;;5.53;2.47;;;;;;;;;;5042215;28;20530;-72
2022/05/10 14:25:49;;;;;;;11.70;5.75;;;;;;;;;;5051527;28;20077;-74
2022/05/10 14:28:25;;;;;;;8.10;4.22;;;;;;;;;;5054499;28;20099;-74
2022/05/10 14:30:53;;;;;;;7.00;3.33;;;;;;;;;;5054597;28;20073;-75
2022/05/10 14:33:35;;;;;;;7.90;3.83;;;;;;;;;;5054277;28;20071;-74
2022/05/10 14:36:03;;;;;;;5.50;1.95;;;;;;;;;;5054504;28;20052;-74
2022/05/10 14:38:30;;;;;;;7.45;3.85;;;;;;;;;;5054543;28;20076;-74
2022/05/10 14:40:57;;;;;;;3.28;1.30;;;;;;;;;;5054458;28;20076;-74
2022/05/10 14:43:26;;;;;;;6.78;1.77;;;;;;;;;;5052579;28;20080;-73
2022/05/10 14:45:52;;;;;;;4.47;1.70;;;;;;;;;;5050058;28;20128;-75
2022/05/10 14:48:19;;;;;;;4.78;1.70;;;;;;;;;;5043565;28;20122;-76
2022/05/10 14:50:51;;;;;;;6.97;2.47;;;;;;;;;;5054330;28;20095;-75
2022/05/10 14:53:20;;;;;;;2.65;1.55;;;;;;;;;;5052660;28;20477;-75
2022/05/10 14:56:07;;;;;;;5.60;2.10;;;;;;;;;;5050451;28;20558;-74
2022/05/10 14:58:38;;;;;;;5.07;2.20;;;;;;;;;;5052474;28;20103;-74
2022/05/10 15:01:11;;;;;;;5.10;2.28;;;;;;;;;;5053743;28;20099;-73
2022/05/10 15:03:38;;;;;;;3.78;1.17;;;;;;;;;;5053612;28;20098;-75
2022/05/10 15:06:08;;;;;;;4.07;1.30;;;;;;;;;;5053193;28;20045;-74
2022/05/10 15:08:34;;;;;;;4.50;1.63;;;;;;;;;;5053868;28;20084;-75
2022/05/10 15:11:01;;;;;;;;;;;;;;;;;;5054001;28;20144;-75
2022/05/10 15:13:28;;;;;;;5.60;2.22;;;;;;;;;;5053085;28;19920;-73
2022/05/10 15:15:58;;;;;;;4.32;1.13;;;;;;;;;;5053700;28;20053;-74